Terminal Aerodrome Forecast
Issued by NWS Jackson, KY

Home | Current Version | Previous Version | Text Only | Print | Product List | Glossary On
Versions: 1 2 3 4 5 6 7 8 9 10 11 12 13 14 15 16 17
430
FTUS43 KJKL 281738
TAFJKL
TAF
KJKL 281738Z 2818/2918 28006KT P6SM VCSH BKN025 OVC035
     FM290300 VRB03KT P6SM OVC015
     FM290500 VRB03KT P6SM OVC008
     FM291100 VRB03KT P6SM BKN015=

USA.gov is the U.S. government's official web portal to all federal, state and local government web resources and services.